sensor_id;sensor_type;location;lat;lon;timestamp;P1;durP1;ratioP1;P2;durP2;ratioP2
9459;SDS011;4768;42.664;23.240;2022-08-05T00:01:11;4.60;;;4.20;;
9459;SDS011;4768;42.664;23.240;2022-08-05T00:03:39;6.30;;;4.27;;
9459;SDS011;4768;42.664;23.240;2022-08-05T00:06:06;4.40;;;4.00;;
9459;SDS011;4768;42.664;23.240;2022-08-05T00:08:34;7.00;;;4.00;;
9459;SDS011;4768;42.664;23.240;2022-08-05T00:11:02;4.40;;;4.00;;
9459;SDS011;4768;42.664;23.240;2022-08-05T00:13:32;7.47;;;4.20;;
9459;SDS011;4768;42.664;23.240;2022-08-05T00:16:00;4.80;;;4.10;;
9459;SDS011;4768;42.664;23.240;2022-08-05T00:18:27;4.93;;;4.43;;
9459;SDS011;4768;42.664;23.240;2022-08-05T00:20:54;6.83;;;4.40;;
9459;SDS011;4768;42.664;23.240;2022-08-05T00:23:21;5.33;;;4.03;;
9459;SDS011;4768;42.664;23.240;2022-08-05T00:25:50;4.00;;;3.60;;
9459;SDS011;4768;42.664;23.240;2022-08-05T00:28:16;5.23;;;3.97;;
9459;SDS011;4768;42.664;23.240;2022-08-05T00:30:43;5.50;;;4.33;;
9459;SDS011;4768;42.664;23.240;2022-08-05T00:33:10;8.03;;;4.37;;
9459;SDS011;4768;42.664;23.240;2022-08-05T00:35:37;4.90;;;4.40;;
9459;SDS011;4768;42.664;23.240;2022-08-05T00:38:03;5.03;;;4.40;;
9459;SDS011;4768;42.664;23.240;2022-08-05T00:40:30;6.37;;;3.67;;
9459;SDS011;4768;42.664;23.240;2022-08-05T00:43:00;6.27;;;4.13;;
9459;SDS011;4768;42.664;23.240;2022-08-05T00:45:28;5.03;;;3.97;;
9459;SDS011;4768;42.664;23.240;2022-08-05T00:47:54;4.60;;;4.20;;
9459;SDS011;4768;42.664;23.240;2022-08-05T00:50:21;4.60;;;4.00;;
9459;SDS011;4768;42.664;23.240;2022-08-05T00:52:48;3.93;;;3.53;;
9459;SDS011;4768;42.664;23.240;2022-08-05T00:55:15;5.70;;;4.10;;
9459;SDS011;4768;42.664;23.240;2022-08-05T00:57:42;5.33;;;4.10;;
9459;SDS011;4768;42.664;23.240;2022-08-05T01:00:11;5.40;;;4.23;;
9459;SDS011;4768;42.664;23.240;2022-08-05T01:02:38;4.77;;;4.00;;
9459;SDS011;4768;42.664;23.240;2022-08-05T01:05:05;5.93;;;4.10;;
9459;SDS011;4768;42.664;23.240;2022-08-05T01:07:33;5.33;;;4.10;;
9459;SDS011;4768;42.664;23.240;2022-08-05T01:09:59;7.43;;;4.03;;
9459;SDS011;4768;42.664;23.240;2022-08-05T01:12:27;4.57;;;4.17;;
9459;SDS011;4768;42.664;23.240;2022-08-05T01:14:55;3.60;;;3.30;;
9459;SDS011;4768;42.664;23.240;2022-08-05T01:17:29;5.07;;;3.80;;
9459;SDS011;4768;42.664;23.240;2022-08-05T01:20:02;4.67;;;4.00;;
9459;SDS011;4768;42.664;23.240;2022-08-05T01:22:44;6.13;;;4.17;;
9459;SDS011;4768;42.664;23.240;2022-08-05T01:25:36;3.87;;;3.57;;
9459;SDS011;4768;42.664;23.240;2022-08-05T01:28:14;4.17;;;3.77;;
9459;SDS011;4768;42.664;23.240;2022-08-05T01:30:43;6.30;;;4.17;;
9459;SDS011;4768;42.664;23.240;2022-08-05T01:33:14;5.10;;;3.97;;
9459;SDS011;4768;42.664;23.240;2022-08-05T01:35:44;4.13;;;3.73;;
9459;SDS011;4768;42.664;23.240;2022-08-05T01:38:14;4.77;;;4.23;;
9459;SDS011;4768;42.664;23.240;2022-08-05T01:40:43;4.87;;;3.97;;
9459;SDS011;4768;42.664;23.240;2022-08-05T01:43:13;8.37;;;4.53;;
9459;SDS011;4768;42.664;23.240;2022-08-05T01:45:42;4.33;;;3.90;;
9459;SDS011;4768;42.664;23.240;2022-08-05T01:48:09;4.43;;;4.00;;
9459;SDS011;4768;42.664;23.240;2022-08-05T01:50:37;4.40;;;4.00;;
9459;SDS011;4768;42.664;23.240;2022-08-05T01:53:06;4.60;;;4.20;;
9459;SDS011;4768;42.664;23.240;2022-08-05T01:55:37;4.87;;;4.47;;
9459;SDS011;4768;42.664;23.240;2022-08-05T01:58:06;5.70;;;4.37;;
9459;SDS011;4768;42.664;23.240;2022-08-05T02:00:38;4.70;;;4.30;;
9459;SDS011;4768;42.664;23.240;2022-08-05T02:03:08;6.30;;;5.17;;
9459;SDS011;4768;42.664;23.240;2022-08-05T02:05:37;4.43;;;4.03;;
9459;SDS011;4768;42.664;23.240;2022-08-05T02:08:06;5.10;;;4.37;;
9459;SDS011;4768;42.664;23.240;2022-08-05T02:10:35;6.43;;;4.03;;
9459;SDS011;4768;42.664;23.240;2022-08-05T02:13:07;4.97;;;3.97;;
9459;SDS011;4768;42.664;23.240;2022-08-05T02:15:42;6.10;;;4.63;;
9459;SDS011;4768;42.664;23.240;2022-08-05T02:18:14;5.07;;;4.57;;
9459;SDS011;4768;42.664;23.240;2022-08-05T02:20:48;4.30;;;3.63;;
9459;SDS011;4768;42.664;23.240;2022-08-05T02:23:19;4.77;;;4.30;;
9459;SDS011;4768;42.664;23.240;2022-08-05T02:25:49;4.97;;;4.47;;
9459;SDS011;4768;42.664;23.240;2022-08-05T02:28:18;4.63;;;4.23;;
9459;SDS011;4768;42.664;23.240;2022-08-05T02:30:52;4.80;;;4.30;;
9459;SDS011;4768;42.664;23.240;2022-08-05T02:33:23;4.97;;;4.47;;
9459;SDS011;4768;42.664;23.240;2022-08-05T02:35:52;8.03;;;4.63;;
9459;SDS011;4768;42.664;23.240;2022-08-05T02:38:23;5.07;;;4.53;;
9459;SDS011;4768;42.664;23.240;2022-08-05T02:40:50;4.83;;;4.10;;
9459;SDS011;4768;42.664;23.240;2022-08-05T02:43:20;5.43;;;4.43;;
9459;SDS011;4768;42.664;23.240;2022-08-05T02:45:49;4.87;;;4.30;;
9459;SDS011;4768;42.664;23.240;2022-08-05T02:48:18;6.03;;;4.13;;
9459;SDS011;4768;42.664;23.240;2022-08-05T02:50:47;5.77;;;4.60;;
9459;SDS011;4768;42.664;23.240;2022-08-05T02:53:15;4.90;;;4.40;;
9459;SDS011;4768;42.664;23.240;2022-08-05T02:55:45;4.60;;;4.20;;
9459;SDS011;4768;42.664;23.240;2022-08-05T02:58:13;5.63;;;4.53;;
9459;SDS011;4768;42.664;23.240;2022-08-05T03:00:42;7.03;;;4.43;;
9459;SDS011;4768;42.664;23.240;2022-08-05T03:03:11;5.20;;;4.70;;
9459;SDS011;4768;42.664;23.240;2022-08-05T03:05:41;4.43;;;4.03;;
9459;SDS011;4768;42.664;23.240;2022-08-05T03:08:09;5.27;;;4.10;;
9459;SDS011;4768;42.664;23.240;2022-08-05T03:10:36;5.53;;;4.27;;
9459;SDS011;4768;42.664;23.240;2022-08-05T03:13:10;4.17;;;3.73;;
9459;SDS011;4768;42.664;23.240;2022-08-05T03:15:37;4.57;;;4.10;;
9459;SDS011;4768;42.664;23.240;2022-08-05T03:18:07;5.90;;;3.60;;
9459;SDS011;4768;42.664;23.240;2022-08-05T03:20:34;6.47;;;3.73;;
9459;SDS011;4768;42.664;23.240;2022-08-05T03:23:02;4.10;;;3.70;;
9459;SDS011;4768;42.664;23.240;2022-08-05T03:25:31;4.13;;;3.80;;
9459;SDS011;4768;42.664;23.240;2022-08-05T03:27:58;4.60;;;3.47;;
9459;SDS011;4768;42.664;23.240;2022-08-05T03:30:26;6.83;;;3.83;;
9459;SDS011;4768;42.664;23.240;2022-08-05T03:32:53;4.77;;;3.43;;
9459;SDS011;4768;42.664;23.240;2022-08-05T03:35:20;3.90;;;3.60;;
9459;SDS011;4768;42.664;23.240;2022-08-05T03:37:47;4.27;;;3.87;;
9459;SDS011;4768;42.664;23.240;2022-08-05T03:40:15;3.80;;;3.43;;
9459;SDS011;4768;42.664;23.240;2022-08-05T03:42:42;6.30;;;3.90;;
9459;SDS011;4768;42.664;23.240;2022-08-05T03:45:09;5.03;;;4.53;;
9459;SDS011;4768;42.664;23.240;2022-08-05T03:47:36;4.40;;;4.00;;
9459;SDS011;4768;42.664;23.240;2022-08-05T03:50:02;4.67;;;3.70;;
9459;SDS011;4768;42.664;23.240;2022-08-05T03:52:31;4.87;;;4.37;;
9459;SDS011;4768;42.664;23.240;2022-08-05T03:55:01;5.40;;;3.50;;
9459;SDS011;4768;42.664;23.240;2022-08-05T03:57:31;4.70;;;3.53;;
9459;SDS011;4768;42.664;23.240;2022-08-05T04:00:03;4.67;;;3.83;;
9459;SDS011;4768;42.664;23.240;2022-08-05T04:02:32;6.43;;;4.93;;
9459;SDS011;4768;42.664;23.240;2022-08-05T04:05:01;5.90;;;4.23;;
9459;SDS011;4768;42.664;23.240;2022-08-05T04:07:29;8.57;;;4.67;;
9459;SDS011;4768;42.664;23.240;2022-08-05T04:09:57;5.30;;;4.40;;
9459;SDS011;4768;42.664;23.240;2022-08-05T04:12:24;8.87;;;5.57;;
9459;SDS011;4768;42.664;23.240;2022-08-05T04:14:52;5.57;;;5.07;;
9459;SDS011;4768;42.664;23.240;2022-08-05T04:17:19;12.30;;;6.27;;
9459;SDS011;4768;42.664;23.240;2022-08-05T04:19:47;7.30;;;5.77;;
9459;SDS011;4768;42.664;23.240;2022-08-05T04:22:14;7.93;;;5.53;;
9459;SDS011;4768;42.664;23.240;2022-08-05T04:24:41;7.77;;;5.70;;
9459;SDS011;4768;42.664;23.240;2022-08-05T04:27:09;8.57;;;6.10;;
9459;SDS011;4768;42.664;23.240;2022-08-05T04:29:36;8.00;;;6.07;;
9459;SDS011;4768;42.664;23.240;2022-08-05T04:32:05;10.03;;;6.57;;
9459;SDS011;4768;42.664;23.240;2022-08-05T04:34:32;8.30;;;5.53;;
9459;SDS011;4768;42.664;23.240;2022-08-05T04:36:59;5.90;;;5.00;;
9459;SDS011;4768;42.664;23.240;2022-08-05T04:39:26;7.90;;;5.43;;
9459;SDS011;4768;42.664;23.240;2022-08-05T04:41:53;7.23;;;5.47;;
9459;SDS011;4768;42.664;23.240;2022-08-05T04:44:20;5.83;;;5.23;;
9459;SDS011;4768;42.664;23.240;2022-08-05T04:46:49;5.83;;;5.13;;
9459;SDS011;4768;42.664;23.240;2022-08-05T04:49:17;5.67;;;4.97;;
9459;SDS011;4768;42.664;23.240;2022-08-05T04:51:44;5.33;;;4.83;;
9459;SDS011;4768;42.664;23.240;2022-08-05T04:54:11;5.77;;;5.17;;
9459;SDS011;4768;42.664;23.240;2022-08-05T04:56:38;5.00;;;4.60;;
9459;SDS011;4768;42.664;23.240;2022-08-05T04:59:05;7.93;;;4.87;;
9459;SDS011;4768;42.664;23.240;2022-08-05T05:01:32;12.60;;;5.30;;
9459;SDS011;4768;42.664;23.240;2022-08-05T05:03:59;5.83;;;5.23;;
9459;SDS011;4768;42.664;23.240;2022-08-05T05:06:27;8.97;;;5.33;;
9459;SDS011;4768;42.664;23.240;2022-08-05T05:08:54;12.87;;;4.70;;
9459;SDS011;4768;42.664;23.240;2022-08-05T05:11:21;6.30;;;4.80;;
9459;SDS011;4768;42.664;23.240;2022-08-05T05:13:48;5.47;;;4.83;;
9459;SDS011;4768;42.664;23.240;2022-08-05T05:16:14;5.60;;;5.10;;
9459;SDS011;4768;42.664;23.240;2022-08-05T05:18:41;6.00;;;5.10;;
9459;SDS011;4768;42.664;23.240;2022-08-05T05:21:08;9.33;;;4.97;;
9459;SDS011;4768;42.664;23.240;2022-08-05T05:23:36;5.40;;;4.83;;
9459;SDS011;4768;42.664;23.240;2022-08-05T05:26:03;6.97;;;4.97;;
9459;SDS011;4768;42.664;23.240;2022-08-05T05:28:30;6.53;;;5.50;;
9459;SDS011;4768;42.664;23.240;2022-08-05T05:30:57;9.77;;;5.00;;
9459;SDS011;4768;42.664;23.240;2022-08-05T05:33:24;8.87;;;5.40;;
9459;SDS011;4768;42.664;23.240;2022-08-05T05:35:51;8.67;;;5.83;;
9459;SDS011;4768;42.664;23.240;2022-08-05T05:38:18;7.78;;;5.97;;
9459;SDS011;4768;42.664;23.240;2022-08-05T05:40:46;8.20;;;6.00;;
9459;SDS011;4768;42.664;23.240;2022-08-05T05:43:13;9.25;;;5.28;;
9459;SDS011;4768;42.664;23.240;2022-08-05T05:45:39;15.45;;;6.57;;
9459;SDS011;4768;42.664;23.240;2022-08-05T05:48:06;7.90;;;5.72;;
9459;SDS011;4768;42.664;23.240;2022-08-05T05:50:33;6.38;;;5.63;;
9459;SDS011;4768;42.664;23.240;2022-08-05T05:53:00;9.50;;;6.25;;
9459;SDS011;4768;42.664;23.240;2022-08-05T05:55:27;7.25;;;5.97;;
9459;SDS011;4768;42.664;23.240;2022-08-05T05:57:55;8.77;;;5.97;;
9459;SDS011;4768;42.664;23.240;2022-08-05T06:00:22;9.00;;;5.97;;
9459;SDS011;4768;42.664;23.240;2022-08-05T06:02:48;9.77;;;5.53;;
9459;SDS011;4768;42.664;23.240;2022-08-05T06:05:15;13.75;;;6.30;;
9459;SDS011;4768;42.664;23.240;2022-08-05T06:07:43;13.40;;;6.20;;
9459;SDS011;4768;42.664;23.240;2022-08-05T06:10:10;8.88;;;5.80;;
9459;SDS011;4768;42.664;23.240;2022-08-05T06:12:37;8.68;;;6.13;;
9459;SDS011;4768;42.664;23.240;2022-08-05T06:15:07;14.40;;;6.43;;
9459;SDS011;4768;42.664;23.240;2022-08-05T06:17:34;6.45;;;4.90;;
9459;SDS011;4768;42.664;23.240;2022-08-05T06:20:01;15.93;;;6.40;;
9459;SDS011;4768;42.664;23.240;2022-08-05T06:22:28;11.10;;;5.70;;
9459;SDS011;4768;42.664;23.240;2022-08-05T06:24:56;9.90;;;5.72;;
9459;SDS011;4768;42.664;23.240;2022-08-05T06:27:24;7.25;;;5.63;;
9459;SDS011;4768;42.664;23.240;2022-08-05T06:29:51;9.55;;;5.18;;
9459;SDS011;4768;42.664;23.240;2022-08-05T06:32:19;10.27;;;5.38;;
9459;SDS011;4768;42.664;23.240;2022-08-05T06:34:46;9.07;;;5.70;;
9459;SDS011;4768;42.664;23.240;2022-08-05T06:37:12;9.73;;;6.38;;
9459;SDS011;4768;42.664;23.240;2022-08-05T06:39:40;13.60;;;5.78;;
9459;SDS011;4768;42.664;23.240;2022-08-05T06:42:07;8.05;;;5.97;;
9459;SDS011;4768;42.664;23.240;2022-08-05T06:44:34;11.73;;;5.53;;
9459;SDS011;4768;42.664;23.240;2022-08-05T06:47:00;7.30;;;5.35;;
9459;SDS011;4768;42.664;23.240;2022-08-05T06:49:29;8.35;;;6.18;;
9459;SDS011;4768;42.664;23.240;2022-08-05T06:51:55;7.68;;;5.63;;
9459;SDS011;4768;42.664;23.240;2022-08-05T06:54:23;7.00;;;5.25;;
9459;SDS011;4768;42.664;23.240;2022-08-05T06:56:49;11.68;;;5.82;;
9459;SDS011;4768;42.664;23.240;2022-08-05T06:59:16;11.02;;;5.20;;
9459;SDS011;4768;42.664;23.240;2022-08-05T07:01:43;6.90;;;4.78;;
9459;SDS011;4768;42.664;23.240;2022-08-05T07:04:10;11.10;;;4.88;;
9459;SDS011;4768;42.664;23.240;2022-08-05T07:06:38;7.38;;;5.82;;
9459;SDS011;4768;42.664;23.240;2022-08-05T07:09:05;8.30;;;4.95;;
9459;SDS011;4768;42.664;23.240;2022-08-05T07:11:32;7.72;;;4.70;;
9459;SDS011;4768;42.664;23.240;2022-08-05T07:13:59;8.32;;;4.97;;
9459;SDS011;4768;42.664;23.240;2022-08-05T07:16:43;9.05;;;5.20;;
9459;SDS011;4768;42.664;23.240;2022-08-05T07:19:16;7.28;;;5.40;;
9459;SDS011;4768;42.664;23.240;2022-08-05T07:21:47;6.80;;;4.97;;
9459;SDS011;4768;42.664;23.240;2022-08-05T07:24:15;7.97;;;5.57;;
9459;SDS011;4768;42.664;23.240;2022-08-05T07:26:42;10.52;;;5.78;;
9459;SDS011;4768;42.664;23.240;2022-08-05T07:29:09;5.97;;;5.38;;
9459;SDS011;4768;42.664;23.240;2022-08-05T07:31:37;12.43;;;5.03;;
9459;SDS011;4768;42.664;23.240;2022-08-05T07:34:04;11.38;;;5.28;;
9459;SDS011;4768;42.664;23.240;2022-08-05T07:36:31;9.20;;;4.60;;
9459;SDS011;4768;42.664;23.240;2022-08-05T07:39:00;9.00;;;4.90;;
9459;SDS011;4768;42.664;23.240;2022-08-05T07:41:27;6.20;;;4.43;;
9459;SDS011;4768;42.664;23.240;2022-08-05T07:43:54;7.90;;;4.47;;
9459;SDS011;4768;42.664;23.240;2022-08-05T07:46:22;6.30;;;4.68;;
9459;SDS011;4768;42.664;23.240;2022-08-05T07:48:50;6.05;;;4.80;;
9459;SDS011;4768;42.664;23.240;2022-08-05T07:51:17;6.32;;;4.47;;
9459;SDS011;4768;42.664;23.240;2022-08-05T07:53:43;8.95;;;4.68;;
9459;SDS011;4768;42.664;23.240;2022-08-05T07:56:12;6.95;;;4.20;;
9459;SDS011;4768;42.664;23.240;2022-08-05T07:58:38;6.65;;;4.45;;
9459;SDS011;4768;42.664;23.240;2022-08-05T08:01:05;8.23;;;4.47;;
9459;SDS011;4768;42.664;23.240;2022-08-05T08:03:32;7.05;;;4.60;;
9459;SDS011;4768;42.664;23.240;2022-08-05T08:05:59;4.88;;;4.38;;
9459;SDS011;4768;42.664;23.240;2022-08-05T08:08:26;4.78;;;4.25;;
9459;SDS011;4768;42.664;23.240;2022-08-05T08:10:52;10.10;;;5.43;;
9459;SDS011;4768;42.664;23.240;2022-08-05T08:13:22;5.10;;;4.60;;
9459;SDS011;4768;42.664;23.240;2022-08-05T08:15:48;7.28;;;4.15;;
9459;SDS011;4768;42.664;23.240;2022-08-05T08:18:15;5.93;;;4.72;;
9459;SDS011;4768;42.664;23.240;2022-08-05T08:20:43;7.10;;;4.72;;
9459;SDS011;4768;42.664;23.240;2022-08-05T08:23:10;7.07;;;4.38;;
9459;SDS011;4768;42.664;23.240;2022-08-05T08:25:37;4.45;;;4.05;;
9459;SDS011;4768;42.664;23.240;2022-08-05T08:28:03;3.22;;;2.92;;
9459;SDS011;4768;42.664;23.240;2022-08-05T08:30:31;8.32;;;3.05;;
9459;SDS011;4768;42.664;23.240;2022-08-05T08:32:58;7.72;;;3.80;;
9459;SDS011;4768;42.664;23.240;2022-08-05T08:35:25;3.63;;;3.33;;
9459;SDS011;4768;42.664;23.240;2022-08-05T08:37:52;6.60;;;3.63;;
9459;SDS011;4768;42.664;23.240;2022-08-05T08:40:19;5.75;;;3.70;;
9459;SDS011;4768;42.664;23.240;2022-08-05T08:42:47;4.43;;;3.42;;
9459;SDS011;4768;42.664;23.240;2022-08-05T08:45:19;4.15;;;3.65;;
9459;SDS011;4768;42.664;23.240;2022-08-05T08:47:49;6.00;;;3.78;;
9459;SDS011;4768;42.664;23.240;2022-08-05T08:50:18;5.55;;;3.65;;
9459;SDS011;4768;42.664;23.240;2022-08-05T08:52:48;6.20;;;3.80;;
9459;SDS011;4768;42.664;23.240;2022-08-05T08:55:18;3.80;;;3.20;;
9459;SDS011;4768;42.664;23.240;2022-08-05T08:57:45;3.50;;;3.10;;
9459;SDS011;4768;42.664;23.240;2022-08-05T09:00:12;3.53;;;3.13;;
9459;SDS011;4768;42.664;23.240;2022-08-05T09:02:40;5.70;;;3.10;;
9459;SDS011;4768;42.664;23.240;2022-08-05T09:05:10;2.80;;;2.60;;
9459;SDS011;4768;42.664;23.240;2022-08-05T09:07:37;4.63;;;2.90;;
9459;SDS011;4768;42.664;23.240;2022-08-05T09:10:05;4.82;;;3.28;;
9459;SDS011;4768;42.664;23.240;2022-08-05T09:12:32;4.80;;;3.05;;
9459;SDS011;4768;42.664;23.240;2022-08-05T09:15:00;2.97;;;2.78;;
9459;SDS011;4768;42.664;23.240;2022-08-05T09:17:27;6.40;;;3.00;;
9459;SDS011;4768;42.664;23.240;2022-08-05T09:19:55;5.90;;;3.25;;
9459;SDS011;4768;42.664;23.240;2022-08-05T09:22:23;5.32;;;2.88;;
9459;SDS011;4768;42.664;23.240;2022-08-05T09:24:57;2.47;;;2.28;;
9459;SDS011;4768;42.664;23.240;2022-08-05T09:27:31;3.20;;;2.90;;
9459;SDS011;4768;42.664;23.240;2022-08-05T09:29:59;4.85;;;3.10;;
9459;SDS011;4768;42.664;23.240;2022-08-05T09:32:33;6.85;;;3.05;;
9459;SDS011;4768;42.664;23.240;2022-08-05T09:35:07;3.75;;;2.75;;
9459;SDS011;4768;42.664;23.240;2022-08-05T09:37:39;4.00;;;2.45;;
9459;SDS011;4768;42.664;23.240;2022-08-05T09:40:27;2.60;;;2.40;;
9459;SDS011;4768;42.664;23.240;2022-08-05T09:43:08;2.83;;;2.63;;
9459;SDS011;4768;42.664;23.240;2022-08-05T09:45:51;2.78;;;2.58;;
9459;SDS011;4768;42.664;23.240;2022-08-05T09:48:19;3.83;;;2.60;;
9459;SDS011;4768;42.664;23.240;2022-08-05T09:50:49;3.10;;;2.80;;
9459;SDS011;4768;42.664;23.240;2022-08-05T09:53:19;3.47;;;2.90;;
9459;SDS011;4768;42.664;23.240;2022-08-05T09:55:48;4.03;;;2.90;;
9459;SDS011;4768;42.664;23.240;2022-08-05T09:58:17;6.63;;;3.05;;
9459;SDS011;4768;42.664;23.240;2022-08-05T10:00:51;6.10;;;3.28;;
9459;SDS011;4768;42.664;23.240;2022-08-05T10:03:22;4.30;;;3.17;;
9459;SDS011;4768;42.664;23.240;2022-08-05T10:06:03;4.78;;;3.50;;
9459;SDS011;4768;42.664;23.240;2022-08-05T10:08:32;3.47;;;3.13;;
9459;SDS011;4768;42.664;23.240;2022-08-05T10:11:01;3.50;;;3.20;;
9459;SDS011;4768;42.664;23.240;2022-08-05T10:13:32;4.90;;;3.30;;
9459;SDS011;4768;42.664;23.240;2022-08-05T10:16:01;3.30;;;3.00;;
9459;SDS011;4768;42.664;23.240;2022-08-05T10:18:28;3.92;;;3.00;;
9459;SDS011;4768;42.664;23.240;2022-08-05T10:20:57;3.30;;;3.00;;
9459;SDS011;4768;42.664;23.240;2022-08-05T10:23:26;3.45;;;3.20;;
9459;SDS011;4768;42.664;23.240;2022-08-05T10:25:56;3.17;;;2.92;;
9459;SDS011;4768;42.664;23.240;2022-08-05T10:28:24;3.42;;;3.13;;
9459;SDS011;4768;42.664;23.240;2022-08-05T10:30:51;3.35;;;3.15;;
9459;SDS011;4768;42.664;23.240;2022-08-05T10:33:18;3.35;;;3.03;;
9459;SDS011;4768;42.664;23.240;2022-08-05T10:35:47;4.55;;;3.20;;
9459;SDS011;4768;42.664;23.240;2022-08-05T10:38:14;3.42;;;3.13;;
9459;SDS011;4768;42.664;23.240;2022-08-05T10:40:45;3.75;;;2.92;;
9459;SDS011;4768;42.664;23.240;2022-08-05T10:43:23;3.13;;;2.83;;
9459;SDS011;4768;42.664;23.240;2022-08-05T10:46:01;5.95;;;3.22;;
9459;SDS011;4768;42.664;23.240;2022-08-05T10:48:31;3.63;;;3.33;;
9459;SDS011;4768;42.664;23.240;2022-08-05T10:51:01;3.50;;;3.20;;
9459;SDS011;4768;42.664;23.240;2022-08-05T10:53:34;3.53;;;3.10;;
9459;SDS011;4768;42.664;23.240;2022-08-05T10:56:06;3.55;;;3.25;;
9459;SDS011;4768;42.664;23.240;2022-08-05T10:58:35;3.40;;;3.10;;
9459;SDS011;4768;42.664;23.240;2022-08-05T11:01:13;3.35;;;2.95;;
9459;SDS011;4768;42.664;23.240;2022-08-05T11:06:25;4.95;;;3.00;;
9459;SDS011;4768;42.664;23.240;2022-08-05T11:11:53;5.65;;;3.08;;
9459;SDS011;4768;42.664;23.240;2022-08-05T11:14:24;3.50;;;3.20;;
9459;SDS011;4768;42.664;23.240;2022-08-05T11:19:56;3.55;;;3.20;;
9459;SDS011;4768;42.664;23.240;2022-08-05T11:22:36;3.85;;;3.45;;
9459;SDS011;4768;42.664;23.240;2022-08-05T11:34:02;4.32;;;3.40;;
9459;SDS011;4768;42.664;23.240;2022-08-05T11:36:43;3.80;;;3.50;;
9459;SDS011;4768;42.664;23.240;2022-08-05T11:39:16;4.00;;;3.53;;
9459;SDS011;4768;42.664;23.240;2022-08-05T11:42:15;3.47;;;3.17;;
9459;SDS011;4768;42.664;23.240;2022-08-05T11:44:43;4.03;;;3.55;;
9459;SDS011;4768;42.664;23.240;2022-08-05T11:47:13;3.95;;;3.15;;
9459;SDS011;4768;42.664;23.240;2022-08-05T11:49:40;4.43;;;3.38;;
9459;SDS011;4768;42.664;23.240;2022-08-05T11:52:08;5.53;;;2.88;;
9459;SDS011;4768;42.664;23.240;2022-08-05T11:54:35;4.18;;;3.50;;
9459;SDS011;4768;42.664;23.240;2022-08-05T11:57:03;3.78;;;3.38;;
9459;SDS011;4768;42.664;23.240;2022-08-05T11:59:31;5.60;;;3.50;;
9459;SDS011;4768;42.664;23.240;2022-08-05T12:01:59;3.13;;;2.92;;
9459;SDS011;4768;42.664;23.240;2022-08-05T12:04:35;3.63;;;3.33;;
9459;SDS011;4768;42.664;23.240;2022-08-05T12:07:04;3.85;;;3.20;;
9459;SDS011;4768;42.664;23.240;2022-08-05T12:09:34;3.55;;;3.25;;
9459;SDS011;4768;42.664;23.240;2022-08-05T12:12:03;6.03;;;3.33;;
9459;SDS011;4768;42.664;23.240;2022-08-05T12:14:35;3.70;;;3.30;;
9459;SDS011;4768;42.664;23.240;2022-08-05T12:17:06;4.95;;;3.65;;
9459;SDS011;4768;42.664;23.240;2022-08-05T12:19:40;3.92;;;3.63;;
9459;SDS011;4768;42.664;23.240;2022-08-05T12:22:08;4.88;;;3.38;;
9459;SDS011;4768;42.664;23.240;2022-08-05T12:24:38;4.82;;;3.30;;
9459;SDS011;4768;42.664;23.240;2022-08-05T12:27:07;3.42;;;3.20;;
9459;SDS011;4768;42.664;23.240;2022-08-05T12:29:34;4.05;;;2.90;;
9459;SDS011;4768;42.664;23.240;2022-08-05T12:32:01;3.90;;;3.25;;
9459;SDS011;4768;42.664;23.240;2022-08-05T12:34:30;3.63;;;3.22;;
9459;SDS011;4768;42.664;23.240;2022-08-05T12:37:01;4.53;;;3.60;;
9459;SDS011;4768;42.664;23.240;2022-08-05T12:39:34;4.00;;;3.33;;
9459;SDS011;4768;42.664;23.240;2022-08-05T12:42:06;3.78;;;3.47;;
9459;SDS011;4768;42.664;23.240;2022-08-05T12:44:34;3.97;;;3.67;;
9459;SDS011;4768;42.664;23.240;2022-08-05T12:47:01;5.80;;;3.70;;
9459;SDS011;4768;42.664;23.240;2022-08-05T12:49:37;8.57;;;3.35;;
9459;SDS011;4768;42.664;23.240;2022-08-05T12:52:10;3.50;;;3.25;;
9459;SDS011;4768;42.664;23.240;2022-08-05T12:54:37;3.55;;;3.25;;
9459;SDS011;4768;42.664;23.240;2022-08-05T12:57:05;4.15;;;2.63;;
9459;SDS011;4768;42.664;23.240;2022-08-05T12:59:42;5.00;;;3.53;;
9459;SDS011;4768;42.664;23.240;2022-08-05T13:02:10;3.70;;;3.35;;
9459;SDS011;4768;42.664;23.240;2022-08-05T13:04:38;9.52;;;3.80;;
9459;SDS011;4768;42.664;23.240;2022-08-05T13:07:08;4.57;;;3.47;;
9459;SDS011;4768;42.664;23.240;2022-08-05T13:09:37;8.35;;;3.33;;
9459;SDS011;4768;42.664;23.240;2022-08-05T13:12:05;4.05;;;3.67;;
9459;SDS011;4768;42.664;23.240;2022-08-05T13:14:34;4.22;;;3.58;;
9459;SDS011;4768;42.664;23.240;2022-08-05T13:17:05;4.03;;;3.63;;
9459;SDS011;4768;42.664;23.240;2022-08-05T13:19:34;3.50;;;3.20;;
9459;SDS011;4768;42.664;23.240;2022-08-05T13:22:01;8.40;;;3.38;;
9459;SDS011;4768;42.664;23.240;2022-08-05T13:24:29;7.97;;;4.28;;
9459;SDS011;4768;42.664;23.240;2022-08-05T13:26:56;5.88;;;3.55;;
9459;SDS011;4768;42.664;23.240;2022-08-05T13:29:23;4.75;;;3.58;;
9459;SDS011;4768;42.664;23.240;2022-08-05T13:31:49;4.13;;;3.55;;
9459;SDS011;4768;42.664;23.240;2022-08-05T13:34:16;3.90;;;3.60;;
9459;SDS011;4768;42.664;23.240;2022-08-05T13:36:43;5.57;;;3.10;;
9459;SDS011;4768;42.664;23.240;2022-08-05T13:39:10;3.72;;;3.40;;
9459;SDS011;4768;42.664;23.240;2022-08-05T13:41:39;3.45;;;3.15;;
9459;SDS011;4768;42.664;23.240;2022-08-05T13:44:06;3.70;;;3.40;;
9459;SDS011;4768;42.664;23.240;2022-08-05T13:46:33;4.28;;;2.95;;
9459;SDS011;4768;42.664;23.240;2022-08-05T13:48:59;3.33;;;3.05;;
9459;SDS011;4768;42.664;23.240;2022-08-05T13:51:30;3.72;;;3.42;;
9459;SDS011;4768;42.664;23.240;2022-08-05T13:53:58;4.95;;;3.38;;
9459;SDS011;4768;42.664;23.240;2022-08-05T13:56:25;3.30;;;3.00;;
9459;SDS011;4768;42.664;23.240;2022-08-05T13:58:53;6.00;;;3.13;;
9459;SDS011;4768;42.664;23.240;2022-08-05T14:01:20;3.20;;;2.80;;
9459;SDS011;4768;42.664;23.240;2022-08-05T14:03:47;3.13;;;2.92;;
9459;SDS011;4768;42.664;23.240;2022-08-05T14:06:28;5.78;;;3.25;;
9459;SDS011;4768;42.664;23.240;2022-08-05T14:08:55;3.75;;;3.13;;
9459;SDS011;4768;42.664;23.240;2022-08-05T14:11:22;3.22;;;3.03;;
9459;SDS011;4768;42.664;23.240;2022-08-05T14:13:48;5.15;;;3.20;;
9459;SDS011;4768;42.664;23.240;2022-08-05T14:16:16;3.38;;;3.08;;
9459;SDS011;4768;42.664;23.240;2022-08-05T14:18:43;4.90;;;3.05;;
9459;SDS011;4768;42.664;23.240;2022-08-05T14:21:10;3.17;;;2.97;;
9459;SDS011;4768;42.664;23.240;2022-08-05T14:23:37;3.30;;;3.08;;
9459;SDS011;4768;42.664;23.240;2022-08-05T14:26:04;3.35;;;3.05;;
9459;SDS011;4768;42.664;23.240;2022-08-05T14:28:30;4.80;;;3.45;;
9459;SDS011;4768;42.664;23.240;2022-08-05T14:30:58;3.45;;;3.15;;
9459;SDS011;4768;42.664;23.240;2022-08-05T14:33:26;3.88;;;3.13;;
9459;SDS011;4768;42.664;23.240;2022-08-05T14:35:54;4.78;;;2.80;;
9459;SDS011;4768;42.664;23.240;2022-08-05T14:38:21;3.25;;;2.95;;
9459;SDS011;4768;42.664;23.240;2022-08-05T14:40:48;4.20;;;2.72;;
9459;SDS011;4768;42.664;23.240;2022-08-05T14:43:15;5.00;;;3.00;;
9459;SDS011;4768;42.664;23.240;2022-08-05T14:45:42;3.58;;;3.28;;
9459;SDS011;4768;42.664;23.240;2022-08-05T14:48:09;3.78;;;3.45;;
9459;SDS011;4768;42.664;23.240;2022-08-05T14:50:37;3.05;;;2.72;;
9459;SDS011;4768;42.664;23.240;2022-08-05T14:53:04;3.10;;;2.85;;
9459;SDS011;4768;42.664;23.240;2022-08-05T14:55:30;3.10;;;2.90;;
9459;SDS011;4768;42.664;23.240;2022-08-05T14:57:57;3.33;;;2.97;;
9459;SDS011;4768;42.664;23.240;2022-08-05T15:00:24;2.92;;;2.72;;
9459;SDS011;4768;42.664;23.240;2022-08-05T15:02:51;6.78;;;3.10;;
9459;SDS011;4768;42.664;23.240;2022-08-05T15:05:17;5.22;;;2.88;;
9459;SDS011;4768;42.664;23.240;2022-08-05T15:07:45;3.30;;;3.00;;
9459;SDS011;4768;42.664;23.240;2022-08-05T15:10:12;3.30;;;3.00;;
9459;SDS011;4768;42.664;23.240;2022-08-05T15:12:39;7.35;;;3.22;;
9459;SDS011;4768;42.664;23.240;2022-08-05T15:15:06;4.15;;;3.47;;
9459;SDS011;4768;42.664;23.240;2022-08-05T15:17:34;3.47;;;3.13;;
9459;SDS011;4768;42.664;23.240;2022-08-05T15:20:00;5.38;;;3.45;;
9459;SDS011;4768;42.664;23.240;2022-08-05T15:22:27;4.38;;;2.97;;
9459;SDS011;4768;42.664;23.240;2022-08-05T15:24:56;3.53;;;3.22;;
9459;SDS011;4768;42.664;23.240;2022-08-05T15:27:23;5.25;;;3.65;;